sensor_id;sensor_type;location;lat;lon;timestamp;pressure;altitude;pressure_sealevel;temperature;humidity
54144;BME280;40050;47.324;18.792;2023-05-10T00:01:20;1005.68;;;13.30;59.05
54144;BME280;40050;47.324;18.792;2023-05-10T00:03:21;1005.68;;;13.28;58.96
54144;BME280;40050;47.324;18.792;2023-05-10T00:05:22;1005.66;;;13.21;58.92
54144;BME280;40050;47.324;18.792;2023-05-10T00:07:23;1005.67;;;13.21;58.86
54144;BME280;40050;47.324;18.792;2023-05-10T00:09:24;1005.63;;;13.17;58.71
54144;BME280;40050;47.324;18.792;2023-05-10T00:11:25;1005.64;;;13.16;58.78
54144;BME280;40050;47.324;18.792;2023-05-10T00:13:26;1005.67;;;13.11;58.78
54144;BME280;40050;47.324;18.792;2023-05-10T00:15:26;1005.71;;;13.07;58.96
54144;BME280;40050;47.324;18.792;2023-05-10T00:17:28;1005.63;;;13.01;59.05
54144;BME280;40050;47.324;18.792;2023-05-10T00:19:28;1005.63;;;12.99;59.24
54144;BME280;40050;47.324;18.792;2023-05-10T00:21:29;1005.64;;;12.97;59.28
54144;BME280;40050;47.324;18.792;2023-05-10T00:23:30;1005.59;;;12.89;59.20
54144;BME280;40050;47.324;18.792;2023-05-10T00:25:31;1005.57;;;12.85;59.29
54144;BME280;40050;47.324;18.792;2023-05-10T00:27:32;1005.62;;;12.89;59.22
54144;BME280;40050;47.324;18.792;2023-05-10T00:29:33;1005.60;;;12.87;58.82
54144;BME280;40050;47.324;18.792;2023-05-10T00:31:34;1005.64;;;12.84;58.90
54144;BME280;40050;47.324;18.792;2023-05-10T00:33:35;1005.65;;;12.83;59.25
54144;BME280;40050;47.324;18.792;2023-05-10T00:35:36;1005.63;;;12.81;59.18
54144;BME280;40050;47.324;18.792;2023-05-10T00:37:37;1005.62;;;12.78;59.24
54144;BME280;40050;47.324;18.792;2023-05-10T00:39:38;1005.59;;;12.77;59.58
54144;BME280;40050;47.324;18.792;2023-05-10T00:41:38;1005.62;;;12.75;59.63
54144;BME280;40050;47.324;18.792;2023-05-10T00:43:39;1005.66;;;12.73;59.62
54144;BME280;40050;47.324;18.792;2023-05-10T00:45:40;1005.65;;;12.71;59.69
54144;BME280;40050;47.324;18.792;2023-05-10T00:47:41;1005.59;;;12.68;60.05
54144;BME280;40050;47.324;18.792;2023-05-10T00:49:42;1005.57;;;12.67;60.09
54144;BME280;40050;47.324;18.792;2023-05-10T00:51:44;1005.55;;;12.67;60.13
54144;BME280;40050;47.324;18.792;2023-05-10T00:53:45;1005.57;;;12.66;59.89
54144;BME280;40050;47.324;18.792;2023-05-10T00:55:46;1005.52;;;12.57;58.93
54144;BME280;40050;47.324;18.792;2023-05-10T00:57:47;1005.56;;;12.51;58.34
54144;BME280;40050;47.324;18.792;2023-05-10T00:59:48;1005.48;;;12.43;58.25
54144;BME280;40050;47.324;18.792;2023-05-10T01:01:49;1005.46;;;12.35;58.24
54144;BME280;40050;47.324;18.792;2023-05-10T01:03:50;1005.40;;;12.29;58.33
54144;BME280;40050;47.324;18.792;2023-05-10T01:05:51;1005.46;;;12.23;58.61
54144;BME280;40050;47.324;18.792;2023-05-10T01:07:52;1005.50;;;12.21;59.08
54144;BME280;40050;47.324;18.792;2023-05-10T01:09:53;1005.48;;;12.16;59.11
54144;BME280;40050;47.324;18.792;2023-05-10T01:11:54;1005.50;;;12.12;59.18
54144;BME280;40050;47.324;18.792;2023-05-10T01:13:56;1005.47;;;12.08;59.33
54144;BME280;40050;47.324;18.792;2023-05-10T01:15:57;1005.47;;;12.05;59.45
54144;BME280;40050;47.324;18.792;2023-05-10T01:17:58;1005.44;;;11.91;59.59
54144;BME280;40050;47.324;18.792;2023-05-10T01:20:00;1005.47;;;11.83;60.01
54144;BME280;40050;47.324;18.792;2023-05-10T01:22:15;1005.50;;;11.80;60.43
54144;BME280;40050;47.324;18.792;2023-05-10T01:29:17;1005.51;;;11.67;61.17
54144;BME280;40050;47.324;18.792;2023-05-10T01:33:43;1005.48;;;11.72;61.57
54144;BME280;40050;47.324;18.792;2023-05-10T01:40:23;1005.45;;;11.62;61.95
54144;BME280;40050;47.324;18.792;2023-05-10T01:42:28;1005.49;;;11.60;61.91
54144;BME280;40050;47.324;18.792;2023-05-10T01:47:16;1005.47;;;11.51;62.49
54144;BME280;40050;47.324;18.792;2023-05-10T01:49:26;1005.47;;;11.51;62.59
54144;BME280;40050;47.324;18.792;2023-05-10T01:51:35;1005.41;;;11.50;62.74
54144;BME280;40050;47.324;18.792;2023-05-10T01:53:37;1005.48;;;11.49;62.75
54144;BME280;40050;47.324;18.792;2023-05-10T01:55:42;1005.40;;;11.46;62.75
54144;BME280;40050;47.324;18.792;2023-05-10T01:57:44;1005.31;;;11.42;62.70
54144;BME280;40050;47.324;18.792;2023-05-10T01:59:47;1005.38;;;11.48;62.67
54144;BME280;40050;47.324;18.792;2023-05-10T02:01:50;1005.42;;;11.44;62.58
54144;BME280;40050;47.324;18.792;2023-05-10T02:03:52;1005.39;;;11.44;62.60
54144;BME280;40050;47.324;18.792;2023-05-10T02:05:54;1005.39;;;11.46;62.84
54144;BME280;40050;47.324;18.792;2023-05-10T02:07:55;1005.34;;;11.47;62.80
54144;BME280;40050;47.324;18.792;2023-05-10T02:09:57;1005.08;;;11.38;62.86
54144;BME280;40050;47.324;18.792;2023-05-10T02:11:59;1005.26;;;11.48;63.04
54144;BME280;40050;47.324;18.792;2023-05-10T02:14:02;1005.25;;;11.47;63.35
54144;BME280;40050;47.324;18.792;2023-05-10T02:16:03;1005.25;;;11.50;63.61
54144;BME280;40050;47.324;18.792;2023-05-10T02:18:05;1005.23;;;11.52;63.60
54144;BME280;40050;47.324;18.792;2023-05-10T02:20:07;1005.23;;;11.54;63.65
54144;BME280;40050;47.324;18.792;2023-05-10T02:22:09;1005.21;;;11.55;63.50
54144;BME280;40050;47.324;18.792;2023-05-10T02:24:10;1004.88;;;11.32;63.27
54144;BME280;40050;47.324;18.792;2023-05-10T02:26:12;1005.25;;;11.57;63.17
54144;BME280;40050;47.324;18.792;2023-05-10T02:28:13;1005.18;;;11.54;63.15
54144;BME280;40050;47.324;18.792;2023-05-10T02:30:15;1005.21;;;11.56;63.01
54144;BME280;40050;47.324;18.792;2023-05-10T02:32:16;1005.20;;;11.56;63.11
54144;BME280;40050;47.324;18.792;2023-05-10T02:34:17;1005.17;;;11.56;63.26
54144;BME280;40050;47.324;18.792;2023-05-10T02:36:20;1005.21;;;11.57;63.34
54144;BME280;40050;47.324;18.792;2023-05-10T02:38:21;1005.20;;;11.56;63.35
54144;BME280;40050;47.324;18.792;2023-05-10T02:40:23;1005.23;;;11.56;63.45
54144;BME280;40050;47.324;18.792;2023-05-10T02:42:27;1005.19;;;11.55;63.45
54144;BME280;40050;47.324;18.792;2023-05-10T02:44:28;1005.19;;;11.55;63.48
54144;BME280;40050;47.324;18.792;2023-05-10T02:46:30;1005.14;;;11.54;63.55
54144;BME280;40050;47.324;18.792;2023-05-10T02:48:31;1005.05;;;11.47;63.57
54144;BME280;40050;47.324;18.792;2023-05-10T02:50:32;1005.11;;;11.51;63.56
54144;BME280;40050;47.324;18.792;2023-05-10T02:52:39;1005.12;;;11.47;63.78
54144;BME280;40050;47.324;18.792;2023-05-10T02:54:44;1005.17;;;11.43;63.91
54144;BME280;40050;47.324;18.792;2023-05-10T02:56:57;1005.14;;;11.42;64.11
54144;BME280;40050;47.324;18.792;2023-05-10T02:58:58;1005.15;;;11.41;63.96
54144;BME280;40050;47.324;18.792;2023-05-10T03:00:59;1005.10;;;11.38;64.21
54144;BME280;40050;47.324;18.792;2023-05-10T03:03:00;1005.06;;;11.36;64.22
54144;BME280;40050;47.324;18.792;2023-05-10T03:05:01;1005.13;;;11.37;64.15
54144;BME280;40050;47.324;18.792;2023-05-10T03:07:02;1005.11;;;11.33;64.42
54144;BME280;40050;47.324;18.792;2023-05-10T03:09:03;1005.16;;;11.33;64.41
54144;BME280;40050;47.324;18.792;2023-05-10T03:11:20;1005.13;;;11.33;64.30
54144;BME280;40050;47.324;18.792;2023-05-10T03:13:39;1005.17;;;11.32;64.40
54144;BME280;40050;47.324;18.792;2023-05-10T03:16:22;1005.21;;;11.31;64.31
54144;BME280;40050;47.324;18.792;2023-05-10T03:18:07;1005.18;;;11.31;64.27
54144;BME280;40050;47.324;18.792;2023-05-10T03:20:10;1005.24;;;11.33;64.08
54144;BME280;40050;47.324;18.792;2023-05-10T03:22:11;1005.14;;;11.31;63.98
54144;BME280;40050;47.324;18.792;2023-05-10T03:24:13;1005.18;;;11.30;63.88
54144;BME280;40050;47.324;18.792;2023-05-10T03:26:17;1005.15;;;11.28;64.04
54144;BME280;40050;47.324;18.792;2023-05-10T03:28:19;1005.16;;;11.25;63.94
54144;BME280;40050;47.324;18.792;2023-05-10T03:30:21;1005.15;;;11.26;64.11
54144;BME280;40050;47.324;18.792;2023-05-10T03:32:22;1005.18;;;11.30;64.12
54144;BME280;40050;47.324;18.792;2023-05-10T03:34:23;1005.16;;;11.29;64.10
54144;BME280;40050;47.324;18.792;2023-05-10T03:36:25;1005.11;;;11.30;64.16
54144;BME280;40050;47.324;18.792;2023-05-10T03:38:25;1005.13;;;11.31;64.32
54144;BME280;40050;47.324;18.792;2023-05-10T03:40:26;1005.04;;;11.31;64.44
54144;BME280;40050;47.324;18.792;2023-05-10T03:42:27;1005.07;;;11.31;64.47
54144;BME280;40050;47.324;18.792;2023-05-10T03:44:28;1005.10;;;11.31;64.57
54144;BME280;40050;47.324;18.792;2023-05-10T03:46:29;1005.05;;;11.29;64.69
54144;BME280;40050;47.324;18.792;2023-05-10T03:48:31;1005.04;;;11.30;64.72
54144;BME280;40050;47.324;18.792;2023-05-10T03:50:32;1005.06;;;11.32;64.71
54144;BME280;40050;47.324;18.792;2023-05-10T03:52:33;1005.07;;;11.32;64.87
54144;BME280;40050;47.324;18.792;2023-05-10T03:54:34;1005.10;;;11.33;64.91
54144;BME280;40050;47.324;18.792;2023-05-10T03:56:35;1005.09;;;11.31;65.00
54144;BME280;40050;47.324;18.792;2023-05-10T03:58:36;1005.07;;;11.32;65.02
54144;BME280;40050;47.324;18.792;2023-05-10T04:00:37;1004.99;;;11.31;65.03
54144;BME280;40050;47.324;18.792;2023-05-10T04:02:38;1005.05;;;11.36;65.10
54144;BME280;40050;47.324;18.792;2023-05-10T04:04:39;1005.04;;;11.37;65.26
54144;BME280;40050;47.324;18.792;2023-05-10T04:06:40;1005.01;;;11.37;66.40
54144;BME280;40050;47.324;18.792;2023-05-10T04:08:41;1004.98;;;11.38;66.75
54144;BME280;40050;47.324;18.792;2023-05-10T04:10:41;1004.99;;;11.39;66.83
54144;BME280;40050;47.324;18.792;2023-05-10T04:12:42;1005.06;;;11.47;67.13
54144;BME280;40050;47.324;18.792;2023-05-10T04:14:43;1005.03;;;11.49;67.40
54144;BME280;40050;47.324;18.792;2023-05-10T04:16:44;1005.06;;;11.54;67.59
54144;BME280;40050;47.324;18.792;2023-05-10T04:18:45;1005.08;;;11.62;67.41
54144;BME280;40050;47.324;18.792;2023-05-10T04:20:46;1005.14;;;11.68;67.46
54144;BME280;40050;47.324;18.792;2023-05-10T04:22:47;1005.14;;;11.75;67.33
54144;BME280;40050;47.324;18.792;2023-05-10T04:24:48;1005.18;;;11.82;67.31
54144;BME280;40050;47.324;18.792;2023-05-10T04:26:49;1005.09;;;11.82;67.19
54144;BME280;40050;47.324;18.792;2023-05-10T04:28:49;1005.06;;;11.86;67.10
54144;BME280;40050;47.324;18.792;2023-05-10T04:30:50;1005.20;;;11.95;67.21
54144;BME280;40050;47.324;18.792;2023-05-10T04:32:51;1005.17;;;12.03;67.17
54144;BME280;40050;47.324;18.792;2023-05-10T04:34:52;1005.22;;;12.14;67.03
54144;BME280;40050;47.324;18.792;2023-05-10T04:36:53;1005.23;;;12.22;66.79
54144;BME280;40050;47.324;18.792;2023-05-10T04:38:54;1005.25;;;12.29;66.74
54144;BME280;40050;47.324;18.792;2023-05-10T04:41:03;1005.22;;;12.36;66.79
54144;BME280;40050;47.324;18.792;2023-05-10T04:43:05;1005.25;;;12.41;66.67
54144;BME280;40050;47.324;18.792;2023-05-10T04:45:06;1005.24;;;12.47;66.45
54144;BME280;40050;47.324;18.792;2023-05-10T04:47:07;1005.26;;;12.54;66.44
54144;BME280;40050;47.324;18.792;2023-05-10T04:49:08;1005.23;;;12.38;66.38
54144;BME280;40050;47.324;18.792;2023-05-10T04:51:09;1005.26;;;12.65;66.10
54144;BME280;40050;47.324;18.792;2023-05-10T04:53:09;1005.27;;;12.75;66.04
54144;BME280;40050;47.324;18.792;2023-05-10T04:55:10;1005.27;;;12.83;65.91
54144;BME280;40050;47.324;18.792;2023-05-10T04:57:11;1005.27;;;12.81;65.85
54144;BME280;40050;47.324;18.792;2023-05-10T04:59:12;1005.24;;;12.93;65.53
54144;BME280;40050;47.324;18.792;2023-05-10T05:01:13;1005.29;;;12.99;65.48
54144;BME280;40050;47.324;18.792;2023-05-10T05:03:14;1005.29;;;13.05;65.12
54144;BME280;40050;47.324;18.792;2023-05-10T05:05:15;1005.30;;;13.08;65.07
54144;BME280;40050;47.324;18.792;2023-05-10T05:07:16;1005.33;;;13.25;64.84
54144;BME280;40050;47.324;18.792;2023-05-10T05:09:17;1005.32;;;13.29;64.53
54144;BME280;40050;47.324;18.792;2023-05-10T05:11:18;1005.35;;;13.43;64.16
54144;BME280;40050;47.324;18.792;2023-05-10T05:13:19;1005.33;;;13.60;64.34
54144;BME280;40050;47.324;18.792;2023-05-10T05:15:20;1005.37;;;13.67;63.90
54144;BME280;40050;47.324;18.792;2023-05-10T05:17:21;1005.33;;;13.64;63.18
54144;BME280;40050;47.324;18.792;2023-05-10T05:19:22;1005.36;;;13.88;63.00
54144;BME280;40050;47.324;18.792;2023-05-10T05:21:22;1005.35;;;13.90;62.77
54144;BME280;40050;47.324;18.792;2023-05-10T05:23:23;1005.37;;;14.14;62.72
54144;BME280;40050;47.324;18.792;2023-05-10T05:25:24;1005.33;;;14.18;61.93
54144;BME280;40050;47.324;18.792;2023-05-10T05:27:25;1005.37;;;14.22;61.52
54144;BME280;40050;47.324;18.792;2023-05-10T05:29:26;1005.38;;;14.31;61.27
54144;BME280;40050;47.324;18.792;2023-05-10T05:31:27;1005.36;;;14.31;61.20
54144;BME280;40050;47.324;18.792;2023-05-10T05:33:28;1005.38;;;14.34;61.39
54144;BME280;40050;47.324;18.792;2023-05-10T05:35:29;1005.43;;;14.27;61.01
54144;BME280;40050;47.324;18.792;2023-05-10T05:37:30;1005.40;;;14.26;61.29
54144;BME280;40050;47.324;18.792;2023-05-10T05:39:31;1005.43;;;14.50;60.90
54144;BME280;40050;47.324;18.792;2023-05-10T05:41:31;1005.41;;;14.74;60.48
54144;BME280;40050;47.324;18.792;2023-05-10T05:43:32;1005.16;;;14.69;59.98
54144;BME280;40050;47.324;18.792;2023-05-10T05:45:33;1005.43;;;14.93;59.87
54144;BME280;40050;47.324;18.792;2023-05-10T05:47:34;1005.40;;;15.00;59.52
54144;BME280;40050;47.324;18.792;2023-05-10T05:49:35;1005.46;;;15.01;58.95
54144;BME280;40050;47.324;18.792;2023-05-10T05:51:36;1005.41;;;14.92;58.75
54144;BME280;40050;47.324;18.792;2023-05-10T05:53:37;1005.41;;;14.95;58.43
54144;BME280;40050;47.324;18.792;2023-05-10T05:55:38;1005.39;;;15.30;58.57
54144;BME280;40050;47.324;18.792;2023-05-10T05:57:39;1005.44;;;15.27;57.53
54144;BME280;40050;47.324;18.792;2023-05-10T05:59:39;1005.46;;;15.08;57.69
54144;BME280;40050;47.324;18.792;2023-05-10T06:01:40;1005.42;;;15.24;57.30
54144;BME280;40050;47.324;18.792;2023-05-10T06:03:41;1005.50;;;15.22;57.13
54144;BME280;40050;47.324;18.792;2023-05-10T06:05:42;1005.41;;;15.01;57.54
54144;BME280;40050;47.324;18.792;2023-05-10T06:07:43;1005.33;;;14.92;57.24
54144;BME280;40050;47.324;18.792;2023-05-10T06:09:44;1005.45;;;15.14;56.94
54144;BME280;40050;47.324;18.792;2023-05-10T06:11:45;1005.41;;;15.15;56.99
54144;BME280;40050;47.324;18.792;2023-05-10T06:13:46;1005.47;;;15.22;56.44
54144;BME280;40050;47.324;18.792;2023-05-10T06:15:47;1005.53;;;15.41;57.24
54144;BME280;40050;47.324;18.792;2023-05-10T06:17:48;1005.50;;;15.50;56.79
54144;BME280;40050;47.324;18.792;2023-05-10T06:19:49;1005.53;;;15.77;56.56
54144;BME280;40050;47.324;18.792;2023-05-10T06:21:49;1005.53;;;15.74;56.09
54144;BME280;40050;47.324;18.792;2023-05-10T06:23:50;1005.43;;;16.01;55.74
54144;BME280;40050;47.324;18.792;2023-05-10T06:25:51;1005.52;;;16.09;55.42
54144;BME280;40050;47.324;18.792;2023-05-10T06:27:52;1005.48;;;15.99;55.39
54144;BME280;40050;47.324;18.792;2023-05-10T06:29:53;1005.42;;;16.47;55.20
54144;BME280;40050;47.324;18.792;2023-05-10T06:31:54;1005.50;;;16.55;54.36
54144;BME280;40050;47.324;18.792;2023-05-10T06:33:55;1005.40;;;16.57;53.48
54144;BME280;40050;47.324;18.792;2023-05-10T06:35:56;1005.45;;;16.70;52.35
54144;BME280;40050;47.324;18.792;2023-05-10T06:37:57;1005.52;;;16.65;52.33
54144;BME280;40050;47.324;18.792;2023-05-10T06:39:58;1005.48;;;16.67;52.33
54144;BME280;40050;47.324;18.792;2023-05-10T06:41:59;1005.49;;;16.70;52.33
54144;BME280;40050;47.324;18.792;2023-05-10T06:44:00;1005.27;;;16.35;52.39
54144;BME280;40050;47.324;18.792;2023-05-10T06:46:01;1005.44;;;16.61;52.42
54144;BME280;40050;47.324;18.792;2023-05-10T06:48:02;1005.47;;;16.60;51.76
54144;BME280;40050;47.324;18.792;2023-05-10T06:50:03;1005.51;;;16.59;51.88
54144;BME280;40050;47.324;18.792;2023-05-10T06:52:03;1005.61;;;17.01;52.00
54144;BME280;40050;47.324;18.792;2023-05-10T06:54:04;1005.55;;;17.10;51.25
54144;BME280;40050;47.324;18.792;2023-05-10T06:56:05;1005.55;;;17.48;50.85
54144;BME280;40050;47.324;18.792;2023-05-10T06:58:06;1005.50;;;17.74;50.55
54144;BME280;40050;47.324;18.792;2023-05-10T07:00:07;1005.40;;;17.66;49.86
54144;BME280;40050;47.324;18.792;2023-05-10T07:02:08;1005.48;;;17.77;49.22
54144;BME280;40050;47.324;18.792;2023-05-10T07:04:09;1005.48;;;17.95;49.41
54144;BME280;40050;47.324;18.792;2023-05-10T07:06:10;1005.48;;;17.84;48.53
54144;BME280;40050;47.324;18.792;2023-05-10T07:08:11;1005.48;;;17.99;48.94
54144;BME280;40050;47.324;18.792;2023-05-10T07:10:12;1005.57;;;17.87;48.97
54144;BME280;40050;47.324;18.792;2023-05-10T07:12:13;1005.49;;;18.10;49.19
54144;BME280;40050;47.324;18.792;2023-05-10T07:14:14;1005.54;;;18.29;49.23
54144;BME280;40050;47.324;18.792;2023-05-10T07:16:15;1005.50;;;18.42;48.70
54144;BME280;40050;47.324;18.792;2023-05-10T07:18:16;1005.50;;;18.69;48.51
54144;BME280;40050;47.324;18.792;2023-05-10T07:20:17;1005.44;;;18.81;48.71
54144;BME280;40050;47.324;18.792;2023-05-10T07:22:18;1005.46;;;19.02;47.99
54144;BME280;40050;47.324;18.792;2023-05-10T07:24:19;1005.50;;;19.30;46.67
54144;BME280;40050;47.324;18.792;2023-05-10T07:26:20;1005.42;;;19.27;46.83
54144;BME280;40050;47.324;18.792;2023-05-10T07:28:21;1005.41;;;19.51;46.80
54144;BME280;40050;47.324;18.792;2023-05-10T07:30:22;1005.43;;;19.22;46.01
54144;BME280;40050;47.324;18.792;2023-05-10T07:32:23;1005.41;;;19.51;45.47
54144;BME280;40050;47.324;18.792;2023-05-10T07:34:24;1005.44;;;19.59;45.83
54144;BME280;40050;47.324;18.792;2023-05-10T07:36:25;1005.40;;;19.60;45.67
54144;BME280;40050;47.324;18.792;2023-05-10T07:38:26;1005.39;;;19.69;45.82
54144;BME280;40050;47.324;18.792;2023-05-10T07:40:27;1005.35;;;19.72;44.84
54144;BME280;40050;47.324;18.792;2023-05-10T07:42:28;1005.49;;;19.95;44.71
54144;BME280;40050;47.324;18.792;2023-05-10T07:44:29;1005.48;;;19.91;44.11
54144;BME280;40050;47.324;18.792;2023-05-10T07:46:30;1005.46;;;19.91;44.93
54144;BME280;40050;47.324;18.792;2023-05-10T07:48:30;1005.45;;;19.89;44.72
54144;BME280;40050;47.324;18.792;2023-05-10T07:50:31;1005.43;;;20.07;45.01
54144;BME280;40050;47.324;18.792;2023-05-10T07:52:32;1005.45;;;20.03;43.95
54144;BME280;40050;47.324;18.792;2023-05-10T07:54:33;1005.38;;;20.23;43.14
54144;BME280;40050;47.324;18.792;2023-05-10T07:56:34;1005.40;;;19.74;43.16
54144;BME280;40050;47.324;18.792;2023-05-10T07:58:35;1005.38;;;20.20;43.06
54144;BME280;40050;47.324;18.792;2023-05-10T08:00:36;1005.40;;;20.18;43.07
54144;BME280;40050;47.324;18.792;2023-05-10T08:02:37;1005.46;;;19.87;43.05
54144;BME280;40050;47.324;18.792;2023-05-10T08:04:37;1005.45;;;19.87;43.72
54144;BME280;40050;47.324;18.792;2023-05-10T08:06:39;1005.38;;;19.76;42.99
54144;BME280;40050;47.324;18.792;2023-05-10T08:08:40;1005.36;;;20.14;42.91
54144;BME280;40050;47.324;18.792;2023-05-10T08:10:41;1005.39;;;20.55;43.20
54144;BME280;40050;47.324;18.792;2023-05-10T08:12:41;1005.36;;;20.58;41.49
54144;BME280;40050;47.324;18.792;2023-05-10T08:14:42;1005.44;;;20.37;41.45
54144;BME280;40050;47.324;18.792;2023-05-10T08:16:43;1005.34;;;20.52;41.96
54144;BME280;40050;47.324;18.792;2023-05-10T08:18:44;1005.35;;;20.84;41.88
54144;BME280;40050;47.324;18.792;2023-05-10T08:20:45;1005.36;;;20.89;41.61
54144;BME280;40050;47.324;18.792;2023-05-10T08:22:46;1005.34;;;20.99;41.12
54144;BME280;40050;47.324;18.792;2023-05-10T08:24:47;1005.30;;;20.82;41.11
54144;BME280;40050;47.324;18.792;2023-05-10T08:26:48;1005.37;;;20.84;41.91
54144;BME280;40050;47.324;18.792;2023-05-10T08:28:49;1005.25;;;20.99;41.29
54144;BME280;40050;47.324;18.792;2023-05-10T08:30:50;1005.24;;;21.17;40.79
54144;BME280;40050;47.324;18.792;2023-05-10T08:32:51;1005.26;;;20.93;40.90
54144;BME280;40050;47.324;18.792;2023-05-10T08:34:52;1005.25;;;20.66;41.26
54144;BME280;40050;47.324;18.792;2023-05-10T08:36:53;1005.21;;;20.91;41.29
54144;BME280;40050;47.324;18.792;2023-05-10T08:38:54;1005.22;;;21.02;41.10
54144;BME280;40050;47.324;18.792;2023-05-10T08:40:55;1005.28;;;21.06;40.38
54144;BME280;40050;47.324;18.792;2023-05-10T08:43:02;1005.29;;;21.04;40.25
54144;BME280;40050;47.324;18.792;2023-05-10T08:45:07;1005.29;;;21.05;39.58
54144;BME280;40050;47.324;18.792;2023-05-10T08:47:08;1005.26;;;21.14;40.58
54144;BME280;40050;47.324;18.792;2023-05-10T08:49:09;1005.26;;;21.23;39.74
54144;BME280;40050;47.324;18.792;2023-05-10T08:51:14;1005.28;;;21.27;39.87
54144;BME280;40050;47.324;18.792;2023-05-10T08:53:15;1005.25;;;21.26;40.72
54144;BME280;40050;47.324;18.792;2023-05-10T08:55:17;1005.25;;;21.28;39.57
54144;BME280;40050;47.324;18.792;2023-05-10T08:57:18;1005.27;;;21.18;40.48
54144;BME280;40050;47.324;18.792;2023-05-10T08:59:19;1005.26;;;21.26;39.60
54144;BME280;40050;47.324;18.792;2023-05-10T09:01:20;1005.23;;;21.32;40.00
54144;BME280;40050;47.324;18.792;2023-05-10T09:03:21;1005.23;;;21.43;40.04
54144;BME280;40050;47.324;18.792;2023-05-10T09:05:22;1005.18;;;21.59;39.96
54144;BME280;40050;47.324;18.792;2023-05-10T09:07:23;1005.24;;;21.58;39.77
54144;BME280;40050;47.324;18.792;2023-05-10T09:09:25;1005.04;;;21.71;39.88
54144;BME280;40050;47.324;18.792;2023-05-10T09:11:26;1005.26;;;21.95;39.06
54144;BME280;40050;47.324;18.792;2023-05-10T09:13:27;1005.22;;;22.11;38.92
54144;BME280;40050;47.324;18.792;2023-05-10T09:15:28;1005.13;;;22.32;38.21
54144;BME280;40050;47.324;18.792;2023-05-10T09:17:29;1005.25;;;21.98;37.76
54144;BME280;40050;47.324;18.792;2023-05-10T09:19:30;1005.23;;;21.87;37.59
54144;BME280;40050;47.324;18.792;2023-05-10T09:21:31;1005.20;;;22.02;38.09
54144;BME280;40050;47.324;18.792;2023-05-10T09:23:32;1005.24;;;21.74;38.03
54144;BME280;40050;47.324;18.792;2023-05-10T09:25:33;1005.29;;;21.88;37.70
54144;BME280;40050;47.324;18.792;2023-05-10T09:27:34;1005.19;;;21.85;37.54
54144;BME280;40050;47.324;18.792;2023-05-10T09:29:39;1005.28;;;22.00;38.36
54144;BME280;40050;47.324;18.792;2023-05-10T09:31:47;1005.22;;;22.03;37.81
54144;BME280;40050;47.324;18.792;2023-05-10T09:33:48;1005.21;;;21.71;37.39
54144;BME280;40050;47.324;18.792;2023-05-10T09:35:49;1005.16;;;21.33;38.38
54144;BME280;40050;47.324;18.792;2023-05-10T09:37:54;1005.30;;;21.29;39.70
54144;BME280;40050;47.324;18.792;2023-05-10T09:39:54;1005.19;;;21.32;39.09
54144;BME280;40050;47.324;18.792;2023-05-10T09:41:55;1005.15;;;21.56;39.10
54144;BME280;40050;47.324;18.792;2023-05-10T09:43:56;1005.15;;;21.41;38.43
54144;BME280;40050;47.324;18.792;2023-05-10T09:45:57;1005.13;;;21.64;38.58
54144;BME280;40050;47.324;18.792;2023-05-10T09:47:58;1005.20;;;21.79;38.57
54144;BME280;40050;47.324;18.792;2023-05-10T09:50:00;1005.13;;;21.77;37.64
54144;BME280;40050;47.324;18.792;2023-05-10T09:52:02;1005.10;;;21.99;37.79
54144;BME280;40050;47.324;18.792;2023-05-10T09:54:13;1005.14;;;21.88;37.04
54144;BME280;40050;47.324;18.792;2023-05-10T09:56:17;1004.98;;;21.80;37.41
54144;BME280;40050;47.324;18.792;2023-05-10T09:58:27;1005.09;;;21.89;38.74
54144;BME280;40050;47.324;18.792;2023-05-10T10:00:29;1005.04;;;21.84;37.21
54144;BME280;40050;47.324;18.792;2023-05-10T10:02:34;1005.00;;;21.57;37.24
54144;BME280;40050;47.324;18.792;2023-05-10T10:04:38;1005.04;;;21.65;37.32
54144;BME280;40050;47.324;18.792;2023-05-10T10:06:39;1004.97;;;21.78;37.37
54144;BME280;40050;47.324;18.792;2023-05-10T10:08:40;1004.98;;;21.82;37.75
54144;BME280;40050;47.324;18.792;2023-05-10T10:10:41;1005.04;;;21.86;37.60
54144;BME280;40050;47.324;18.792;2023-05-10T10:12:43;1004.99;;;21.93;37.39
54144;BME280;40050;47.324;18.792;2023-05-10T10:14:45;1004.94;;;21.92;37.46
54144;BME280;40050;47.324;18.792;2023-05-10T10:16:46;1004.91;;;21.94;37.78
54144;BME280;40050;47.324;18.792;2023-05-10T10:18:47;1004.89;;;22.02;37.05
54144;BME280;40050;47.324;18.792;2023-05-10T10:20:48;1004.88;;;22.09;38.14
54144;BME280;40050;47.324;18.792;2023-05-10T10:22:49;1004.89;;;22.22;38.28
54144;BME280;40050;47.324;18.792;2023-05-10T10:24:50;1004.91;;;22.33;37.11
54144;BME280;40050;47.324;18.792;2023-05-10T10:26:52;1004.81;;;22.32;36.56
54144;BME280;40050;47.324;18.792;2023-05-10T10:29:15;1004.83;;;22.17;37.18
54144;BME280;40050;47.324;18.792;2023-05-10T10:33:48;1004.83;;;22.42;36.96
54144;BME280;40050;47.324;18.792;2023-05-10T10:35:52;1004.74;;;22.50;36.59
54144;BME280;40050;47.324;18.792;2023-05-10T10:37:53;1004.74;;;22.28;36.25
54144;BME280;40050;47.324;18.792;2023-05-10T10:39:54;1004.62;;;22.30;35.67
54144;BME280;40050;47.324;18.792;2023-05-10T10:41:56;1004.67;;;22.18;36.23
54144;BME280;40050;47.324;18.792;2023-05-10T10:44:40;1004.62;;;22.03;36.38
54144;BME280;40050;47.324;18.792;2023-05-10T10:46:16;1004.64;;;22.00;36.54
54144;BME280;40050;47.324;18.792;2023-05-10T10:48:23;1004.59;;;22.08;36.58
54144;BME280;40050;47.324;18.792;2023-05-10T10:50:24;1004.60;;;22.19;36.79
54144;BME280;40050;47.324;18.792;2023-05-10T10:52:30;1004.61;;;21.94;36.62
54144;BME280;40050;47.324;18.792;2023-05-10T10:54:32;1004.64;;;21.97;36.79
54144;BME280;40050;47.324;18.792;2023-05-10T10:56:33;1004.57;;;21.88;36.76
54144;BME280;40050;47.324;18.792;2023-05-10T10:58:34;1004.53;;;21.83;37.06
54144;BME280;40050;47.324;18.792;2023-05-10T11:00:38;1004.48;;;21.81;37.73
54144;BME280;40050;47.324;18.792;2023-05-10T11:02:45;1004.54;;;21.72;38.26